Time;durP1;ratioP1;P1;durP2;ratioP2;P2;SDS_P1;SDS_P2;PMS_P1;PMS_P2;Temp;Humidity;BMP_temperature;BMP_pressure;BME280_temperature;BME280_humidity;BME280_pressure;Samples;Min_cycle;Max_cycle;Signal;HPM_P1;HPM_P2
2022/06/24 00:01:42;;;;;;;7.65;2.20;;;;;;;48.95;9.89;100339.16;5092315;28;20040;-61
2022/06/24 00:04:09;;;;;;;20.50;3.28;;;;;;;49.35;9.46;100337.38;5099505;28;20028;-62
2022/06/24 00:06:46;;;;;;;11.95;2.60;;;;;;;48.16;10.30;100326.78;5109613;28;20028;-62
2022/06/24 00:09:14;;;;;;;7.82;2.72;;;;;;;49.05;9.77;100323.06;5104388;28;20401;-62
2022/06/24 00:11:41;;;;;;;8.85;2.38;;;;;;;48.26;10.68;100317.28;5087452;28;20043;-62
2022/06/24 00:14:15;;;;;;;9.77;2.17;;;;;;;47.17;10.94;100333.38;5102470;28;20036;-61
2022/06/24 00:17:02;;;;;;;8.77;2.05;;;;;;;47.92;10.23;100325.38;5083981;28;20034;-60
2022/06/24 00:19:32;;;;;;;8.88;2.20;;;;;;;48.26;10.34;100322.25;5093037;28;20024;-61
2022/06/24 00:22:11;;;;;;;9.27;2.50;;;;;;;48.94;9.81;100323.97;5094862;28;20025;-60
2022/06/24 00:24:40;;;;;;;15.00;2.55;;;;;;;46.79;11.14;100321.44;5098997;28;20032;-61
2022/06/24 00:27:22;;;;;;;8.73;2.40;;;;;;;47.21;10.94;100310.84;5101734;28;20031;-61
2022/06/24 00:29:50;;;;;;;10.27;2.20;;;;;;;47.09;11.47;100323.72;5089748;28;20441;-61
2022/06/24 00:32:29;;;;;;;10.55;2.05;;;;;;;48.01;10.59;100310.66;5079072;28;20325;-60
2022/06/24 00:35:09;;;;;;;11.38;2.30;;;;;;;48.62;10.16;100297.78;5095454;28;20031;-61
2022/06/24 00:37:37;;;;;;;9.85;2.22;;;;;;;48.83;9.79;100305.94;5101149;28;20036;-61
2022/06/24 00:40:24;;;;;;;9.73;2.03;;;;;;;48.12;10.51;100295.34;5101060;28;20040;-60
2022/06/24 00:42:51;;;;;;;8.32;2.40;;;;;;;48.81;10.01;100306.50;5099259;28;20036;-61
2022/06/24 00:45:34;;;;;;;18.02;2.63;;;;;;;48.65;9.95;100295.94;5095392;28;20042;-60
2022/06/24 00:48:16;;;;;;;9.95;2.30;;;;;;;48.45;10.33;100294.28;5076571;28;20032;-62
2022/06/24 00:50:47;;;;;;;10.55;2.17;;;;;;;47.85;10.19;100305.78;5078193;28;20089;-62
2022/06/24 00:53:14;;;;;;;7.47;2.17;;;;;;;47.95;10.75;100298.41;5075340;28;20123;-61
2022/06/24 00:55:41;;;;;;;11.05;2.40;;;;;;;47.43;11.11;100292.69;5074804;28;20039;-61
2022/06/24 00:58:16;;;;;;;8.90;2.60;;;;;;;46.85;11.29;100295.53;5076110;28;20074;-62
2022/06/24 01:00:45;;;;;;;9.55;2.50;;;;;;;46.90;10.95;100298.41;5072631;28;20483;-61
2022/06/24 01:03:14;;;;;;;16.00;2.42;;;;;;;46.36;11.18;100292.22;5094575;28;20072;-61
2022/06/24 01:05:42;;;;;;;9.02;2.20;;;;;;;46.15;11.73;100296.69;5091823;28;20249;-60
2022/06/24 01:08:11;;;;;;;10.52;2.30;;;;;;;46.17;12.09;100289.09;5081787;28;20029;-61
2022/06/24 01:10:39;;;;;;;9.73;1.95;;;;;;;45.83;11.82;100291.16;5096361;28;20378;-61
2022/06/24 01:13:11;;;;;;;9.27;2.55;;;;;;;46.32;11.48;100294.56;5087687;28;20021;-60
2022/06/24 01:15:38;;;;;;;9.35;2.17;;;;;;;45.28;12.31;100292.59;5090831;28;20028;-61
2022/06/24 01:18:07;;;;;;;10.05;2.42;;;;;;;43.29;13.64;100289.16;5092639;28;20027;-61
2022/06/24 01:20:34;;;;;;;9.35;2.10;;;;;;;44.13;13.03;100306.41;5089099;28;20028;-61
2022/06/24 01:23:01;;;;;;;10.15;2.00;;;;;;;43.92;13.32;100305.69;5090554;28;20027;-60
2022/06/24 01:25:31;;;;;;;7.55;2.50;;;;;;;44.57;12.79;100303.94;5097056;28;20033;-59
2022/06/24 01:27:59;;;;;;;10.40;2.10;;;;;;;44.64;12.69;100311.25;5098911;28;20490;-60
2022/06/24 01:30:27;;;;;;;6.47;2.20;;;;;;;43.96;12.98;100306.25;5082476;28;20028;-60
2022/06/24 01:32:54;;;;;;;6.10;1.70;;;;;;;44.13;13.03;100307.19;5074342;28;20117;-61
2022/06/24 01:35:23;;;;;;;11.88;1.95;;;;;;;44.34;12.67;100316.47;5071274;28;20055;-61
2022/06/24 01:37:50;;;;;;;8.20;2.20;;;;;;;44.30;12.94;100313.06;5075467;28;20025;-60
2022/06/24 01:40:17;;;;;;;5.10;2.00;;;;;;;44.23;12.81;100310.69;5085709;28;20077;-60
2022/06/24 01:42:43;;;;;;;8.15;1.92;;;;;;;44.18;13.18;100315.06;5088983;28;20489;-60
2022/06/24 01:45:10;;;;;;;7.28;1.85;;;;;;;43.53;13.59;100317.50;5087982;28;20040;-60
2022/06/24 01:47:37;;;;;;;12.45;2.58;;;;;;;43.48;13.09;100314.59;5086574;28;20037;-61
2022/06/24 01:50:05;;;;;;;6.93;1.95;;;;;;;43.38;13.73;100323.31;5088714;28;20080;-62
2022/06/24 01:52:31;;;;;;;13.80;2.40;;;;;;;43.12;13.17;100323.25;5085673;28;20548;-61
2022/06/24 01:54:58;;;;;;;12.93;2.30;;;;;;;43.00;13.28;100326.44;5088109;28;20158;-61
2022/06/24 01:57:25;;;;;;;20.92;3.10;;;;;;;42.66;13.33;100325.16;5076115;28;20054;-61
2022/06/24 01:59:52;;;;;;;25.67;3.00;;;;;;;42.72;13.32;100312.50;5088339;28;20573;-60
2022/06/24 02:02:19;;;;;;;43.90;4.90;;;;;;;42.14;13.37;100334.16;5085361;28;20028;-60
2022/06/24 02:04:47;;;;;;;36.30;4.05;;;;;;;42.00;13.35;100339.84;5087622;28;20016;-62
2022/06/24 02:07:14;;;;;;;31.35;4.78;;;;;;;41.73;13.50;100329.50;5086146;28;20032;-60
2022/06/24 02:15:11;;;;;;;30.75;3.70;;;;;;;41.51;13.86;100344.09;5087816;28;20201;-59
2022/06/24 02:17:38;;;;;;;20.73;3.00;;;;;;;41.27;13.69;100350.59;5085547;28;20041;-62
2022/06/24 02:20:05;;;;;;;20.83;2.67;;;;;;;41.05;14.36;100353.72;5088360;28;20968;-61
2022/06/24 02:22:32;;;;;;;21.40;2.60;;;;;;;40.72;14.74;100359.44;5089918;28;20028;-60
2022/06/24 02:24:59;;;;;;;20.05;3.35;;;;;;;40.55;14.80;100351.75;5086891;28;20146;-60
2022/06/24 02:27:25;;;;;;;23.88;3.42;;;;;;;40.30;15.03;100361.47;5087261;28;20105;-61
2022/06/24 02:29:52;;;;;;;22.00;3.05;;;;;;;40.02;14.70;100367.22;5087297;28;20032;-60
2022/06/24 02:32:19;;;;;;;29.27;3.88;;;;;;;39.89;14.82;100372.28;5083284;28;20043;-60
2022/06/24 02:34:46;;;;;;;30.25;3.40;;;;;;;39.82;14.55;100367.69;5085893;28;20033;-60
2022/06/24 02:37:12;;;;;;;18.65;3.40;;;;;;;39.75;15.18;100370.88;5087438;28;20470;-60
2022/06/24 02:39:39;;;;;;;25.35;3.85;;;;;;;39.57;15.35;100376.56;5088020;28;20098;-62
2022/06/24 02:42:06;;;;;;;22.13;3.42;;;;;;;39.47;15.12;100387.09;5088845;28;20016;-61
2022/06/24 02:44:32;;;;;;;26.05;3.80;;;;;;;39.38;15.38;100374.94;5089241;28;20040;-61
2022/06/24 02:46:59;;;;;;;26.13;3.53;;;;;;;39.29;15.18;100384.22;5087800;28;20025;-60
2022/06/24 02:49:26;;;;;;;17.35;3.08;;;;;;;39.18;15.29;100389.59;5086865;28;20024;-61
2022/06/24 02:51:52;;;;;;;17.90;3.20;;;;;;;39.09;15.48;100392.41;5087831;28;20057;-62
2022/06/24 02:54:19;;;;;;;22.30;3.20;;;;;;;38.96;15.92;100396.13;5088473;28;20086;-62
2022/06/24 02:56:45;;;;;;;16.25;3.13;;;;;;;38.90;15.50;100400.84;5081313;28;20027;-61
2022/06/24 02:59:12;;;;;;;15.75;3.40;;;;;;;38.78;15.56;100400.94;5091233;28;20078;-60
2022/06/24 03:01:39;;;;;;;18.23;3.22;;;;;;;38.61;15.61;100409.69;5091664;28;20020;-62
2022/06/24 03:04:05;;;;;;;20.27;3.30;;;;;;;38.55;15.49;100414.38;5090300;28;20052;-59
2022/06/24 03:06:32;;;;;;;19.50;3.15;;;;;;;38.50;15.95;100420.66;5089434;28;20921;-61
2022/06/24 03:08:59;;;;;;;27.52;3.60;;;;;;;38.50;15.71;100431.25;5091587;28;20032;-59
2022/06/24 03:11:25;;;;;;;22.75;3.40;;;;;;;38.36;15.48;100435.41;5091302;28;20024;-59
2022/06/24 03:13:52;;;;;;;19.92;3.42;;;;;;;38.28;15.93;100431.25;5090589;28;20036;-60
2022/06/24 03:16:18;;;;;;;20.30;6.43;;;;;;;38.16;15.72;100438.56;5092485;28;20591;-59
2022/06/24 03:18:45;;;;;;;19.50;4.35;;;;;;;38.01;16.06;100435.44;5088492;28;20036;-59
2022/06/24 03:21:12;;;;;;;15.25;2.78;;;;;;;38.02;15.92;100448.38;5089994;28;20164;-60
2022/06/24 03:23:39;;;;;;;26.95;14.00;;;;;;;37.92;16.27;100455.25;5090603;28;20028;-60
2022/06/24 03:26:05;;;;;;;14.02;3.83;;;;;;;37.78;16.55;100462.22;5092268;28;20020;-61
2022/06/24 03:28:32;;;;;;;15.05;3.40;;;;;;;37.67;16.46;100463.78;5092344;28;20047;-60
2022/06/24 03:30:59;;;;;;;14.73;3.03;;;;;;;37.66;16.45;100460.16;5089750;28;20046;-61
2022/06/24 03:33:25;;;;;;;13.73;2.90;;;;;;;37.64;16.34;100470.38;5087237;28;20514;-61
2022/06/24 03:35:52;;;;;;;11.63;2.70;;;;;;;37.66;16.44;100465.03;5088557;28;20470;-60
2022/06/24 03:38:19;;;;;;;13.30;3.00;;;;;;;37.74;16.22;100472.09;5090733;28;20028;-61
2022/06/24 03:40:45;;;;;;;9.63;2.40;;;;;;;37.65;16.50;100474.81;5090992;28;20249;-61
2022/06/24 03:43:12;;;;;;;11.75;2.17;;;;;;;37.55;16.49;100475.97;5089707;28;20367;-60
2022/06/24 03:45:38;;;;;;;10.60;2.50;;;;;;;37.45;16.70;100480.75;5089208;28;20028;-58
2022/06/24 03:48:05;;;;;;;17.83;2.83;;;;;;;37.42;16.84;100490.94;5088825;28;20165;-58
2022/06/24 03:50:32;;;;;;;12.48;2.47;;;;;;;37.33;16.67;100490.03;5089636;28;20032;-60
2022/06/24 03:52:58;;;;;;;10.15;2.42;;;;;;;37.30;16.88;100500.25;5088773;28;20024;-59
2022/06/24 03:55:27;;;;;;;13.45;3.03;;;;;;;37.23;16.81;100494.78;5085940;28;20619;-59
2022/06/24 03:57:54;;;;;;;11.50;2.35;;;;;;;37.10;17.01;100502.50;5089339;28;20028;-60
2022/06/24 04:00:21;;;;;;;15.98;2.53;;;;;;;37.05;16.75;100501.03;5090530;28;20156;-60
2022/06/24 04:02:47;;;;;;;8.48;2.08;;;;;;;37.01;16.75;100506.03;5089105;28;20065;-59
2022/06/24 04:05:15;;;;;;;12.13;2.00;;;;;;;37.04;16.60;100509.97;5090554;28;20020;-59
2022/06/24 04:07:42;;;;;;;11.55;2.70;;;;;;;36.92;16.68;100525.72;5090164;28;20031;-60
2022/06/24 04:10:08;;;;;;;18.05;2.85;;;;;;;36.85;16.80;100515.41;5090631;28;20055;-60
2022/06/24 04:12:35;;;;;;;9.90;2.33;;;;;;;36.83;17.04;100522.75;5090676;28;20036;-60
2022/06/24 04:15:17;;;;;;;15.65;3.08;;;;;;;36.68;17.10;100516.69;5091318;28;20039;-59
2022/06/24 04:17:46;;;;;;;15.02;3.20;;;;;;;36.67;17.23;100526.44;5085555;28;20031;-61
2022/06/24 04:20:15;;;;;;;14.93;2.70;;;;;;;36.57;17.99;100533.19;5089065;28;20076;-59
2022/06/24 04:22:42;;;;;;;18.80;3.17;;;;;;;36.51;17.95;100541.44;5093030;28;20040;-59
2022/06/24 04:25:10;;;;;;;13.15;3.17;;;;;;;36.36;17.90;100543.09;5089829;28;20028;-60
2022/06/24 04:27:37;;;;;;;9.73;2.80;;;;;;;36.27;17.89;100549.38;5087011;28;20028;-61
2022/06/24 04:30:06;;;;;;;9.43;2.88;;;;;;;36.06;17.99;100552.75;5088108;28;20111;-60
2022/06/24 04:32:34;;;;;;;14.38;3.15;;;;;;;35.91;18.54;100560.00;5083936;28;20040;-60
2022/06/24 04:35:01;;;;;;;11.05;2.97;;;;;;;35.85;18.13;100556.13;5087353;28;20028;-59
2022/06/24 04:37:28;;;;;;;14.73;2.97;;;;;;;35.84;18.77;100563.03;5087484;28;20039;-60
2022/06/24 04:39:58;;;;;;;15.10;3.42;;;;;;;35.78;18.05;100570.44;5089076;28;20067;-61
2022/06/24 04:42:24;;;;;;;23.10;4.32;;;;;;;35.63;18.69;100575.63;5087216;28;20645;-62
2022/06/24 04:44:51;;;;;;;25.33;5.15;;;;;;;35.57;18.84;100575.38;5087713;28;20260;-60
2022/06/24 04:47:19;;;;;;;33.38;5.30;;;;;;;35.59;18.64;100583.41;5088708;28;20482;-59
2022/06/24 04:49:45;;;;;;;28.10;6.00;;;;;;;35.53;18.92;100577.47;5087692;28;20024;-61
2022/06/24 04:52:12;;;;;;;28.05;5.53;;;;;;;35.50;18.92;100586.03;5088653;28;20036;-60
2022/06/24 04:54:39;;;;;;;18.58;3.97;;;;;;;35.43;18.95;100589.81;5089931;28;20051;-60
2022/06/24 04:57:06;;;;;;;16.48;3.58;;;;;;;35.38;18.99;100593.19;5083723;28;20103;-60
2022/06/24 04:59:32;;;;;;;19.85;3.70;;;;;;;35.38;18.82;100593.19;5087339;28;20024;-61
2022/06/24 05:01:59;;;;;;;20.30;3.20;;;;;;;35.29;18.98;100596.56;5087552;28;20050;-61
2022/06/24 05:04:26;;;;;;;14.77;3.03;;;;;;;35.24;19.50;100613.25;5088252;28;20020;-62
2022/06/24 05:06:53;;;;;;;13.25;2.75;;;;;;;35.20;19.38;100616.16;5087747;28;20431;-60
2022/06/24 05:09:19;;;;;;;10.07;2.28;;;;;;;35.09;19.31;100613.53;5089233;28;20165;-60
2022/06/24 05:11:48;;;;;;;6.22;1.80;;;;;;;34.95;19.76;100608.19;5087105;28;20028;-60
2022/06/24 05:14:15;;;;;;;22.02;2.35;;;;;;;34.96;19.74;100615.41;5073187;28;20024;-61
2022/06/24 05:16:42;;;;;;;10.10;2.35;;;;;;;35.01;19.64;100620.59;5086099;28;20035;-62
2022/06/24 05:19:11;;;;;;;17.30;2.75;;;;;;;35.02;19.73;100619.34;5089145;28;20028;-60
2022/06/24 05:21:38;;;;;;;12.18;2.25;;;;;;;34.97;19.99;100619.84;5091215;28;20028;-60
2022/06/24 05:24:04;;;;;;;13.30;2.35;;;;;;;34.96;20.04;100618.25;5088441;28;20035;-61
2022/06/24 05:26:32;;;;;;;14.07;2.17;;;;;;;34.93;20.11;100626.81;5087237;28;20028;-62
2022/06/24 05:28:58;;;;;;;12.13;2.40;;;;;;;34.92;19.88;100588.50;5091024;28;20024;-61
2022/06/24 05:31:25;;;;;;;12.50;2.28;;;;;;;34.95;19.59;100621.50;5081994;28;20028;-61
2022/06/24 05:33:53;;;;;;;19.17;2.88;;;;;;;34.92;19.94;100609.06;5087416;28;20039;-61
2022/06/24 05:36:19;;;;;;;11.68;2.15;;;;;;;34.97;19.98;100621.88;5084633;28;20070;-61
2022/06/24 05:38:46;;;;;;;10.18;2.00;;;;;;;34.85;19.87;100603.56;5088067;28;20455;-60
2022/06/24 05:41:13;;;;;;;11.68;2.38;;;;;;;34.77;20.39;100614.16;5089410;28;20044;-61
2022/06/24 05:43:40;;;;;;;11.77;2.15;;;;;;;34.71;20.42;100615.09;5090786;28;20401;-60
2022/06/24 05:46:06;;;;;;;10.38;2.15;;;;;;;34.62;20.63;100623.34;5090948;28;20573;-61
2022/06/24 05:48:33;;;;;;;7.13;1.90;;;;;;;34.43;21.37;100622.88;5086807;28;20497;-63
2022/06/24 05:51:08;;;;;;;16.70;2.38;;;;;;;34.25;21.54;100628.00;5089997;28;20064;-61
2022/06/24 05:56:20;;;;;;;9.60;1.83;;;;;;;33.98;21.87;100642.16;5079558;28;20024;-62
2022/06/24 05:58:47;;;;;;;8.13;1.42;;;;;;;33.85;22.15;100630.69;5090201;28;20111;-60
2022/06/24 06:01:14;;;;;;;7.75;2.13;;;;;;;33.80;22.12;100645.22;5087915;28;20564;-61
2022/06/24 06:03:41;;;;;;;7.72;2.20;;;;;;;33.68;22.56;100634.53;5090269;28;20028;-61
2022/06/24 06:06:08;;;;;;;13.85;3.65;;;;;;;33.66;22.31;100636.97;5093486;28;20696;-62
2022/06/24 06:08:36;;;;;;;9.00;3.10;;;;;;;33.63;22.30;100627.34;5089358;28;20016;-62
2022/06/24 06:11:23;;;;;;;9.65;3.03;;;;;;;33.72;22.53;100629.63;5086562;28;20036;-61
2022/06/24 06:13:52;;;;;;;7.00;3.30;;;;;;;33.69;22.36;100640.97;5088887;28;20032;-61
2022/06/24 06:16:20;;;;;;;11.85;3.58;;;;;;;33.71;22.29;100625.22;5085144;28;20031;-62
2022/06/24 06:18:48;;;;;;;12.43;2.92;;;;;;;33.79;22.25;100635.19;5087627;28;20032;-60
2022/06/24 06:21:16;;;;;;;8.57;2.60;;;;;;;33.74;22.44;100634.84;5086594;28;20040;-62
2022/06/24 06:23:43;;;;;;;9.77;3.95;;;;;;;33.71;22.51;100639.31;5087436;28;20047;-61
2022/06/24 06:26:11;;;;;;;13.32;3.38;;;;;;;33.64;22.25;100647.88;5087259;28;20032;-61
2022/06/24 06:28:38;;;;;;;9.90;2.20;;;;;;;33.70;22.42;100646.19;5089094;28;20482;-61
2022/06/24 06:31:08;;;;;;;10.13;1.88;;;;;;;33.72;22.35;100643.72;5086864;28;20046;-60
2022/06/24 06:33:35;;;;;;;8.60;1.73;;;;;;;33.77;22.49;100646.09;5090358;28;20034;-62
2022/06/24 06:36:07;;;;;;;9.20;1.67;;;;;;;33.78;21.96;100660.97;5092427;28;20922;-61
2022/06/24 06:38:34;;;;;;;15.75;1.90;;;;;;;33.87;21.75;100653.59;5093177;28;20028;-61
2022/06/24 06:41:02;;;;;;;5.30;1.60;;;;;;;33.73;22.29;100656.59;5093010;28;20028;-61
2022/06/24 06:43:31;;;;;;;4.95;1.58;;;;;;;33.62;22.37;100656.75;5094631;28;20093;-61
2022/06/24 06:45:58;;;;;;;10.35;2.88;;;;;;;33.54;22.67;100662.91;5093125;28;20076;-60
2022/06/24 06:48:25;;;;;;;12.00;1.95;;;;;;;33.59;22.15;100639.91;5093959;28;20055;-60
2022/06/24 06:50:57;;;;;;;8.88;2.33;;;;;;;33.51;22.82;100653.28;5090314;28;20027;-60
2022/06/24 06:53:25;;;;;;;13.32;2.45;;;;;;;33.42;22.60;100650.22;5090462;28;20630;-61
2022/06/24 06:55:53;;;;;;;8.07;1.83;;;;;;;33.44;22.42;100652.59;5084931;28;20075;-60
2022/06/24 06:58:23;;;;;;;8.52;1.88;;;;;;;33.45;22.73;100652.19;5093264;28;20024;-61
2022/06/24 07:00:51;;;;;;;7.90;1.80;;;;;;;33.51;22.78;100653.28;5090308;28;20030;-62
2022/06/24 07:03:18;;;;;;;10.05;2.10;;;;;;;33.47;22.51;100651.75;5090346;28;20114;-61
2022/06/24 07:05:45;;;;;;;6.50;1.88;;;;;;;33.49;22.28;100657.75;5093453;28;20040;-59
2022/06/24 07:08:13;;;;;;;9.25;2.08;;;;;;;33.48;22.28;100653.34;5093385;28;20498;-60
2022/06/24 07:10:41;;;;;;;9.48;1.88;;;;;;;33.47;22.24;100646.91;5093665;28;20031;-59
2022/06/24 07:13:08;;;;;;;9.07;1.80;;;;;;;33.45;22.10;100652.19;5091997;28;20063;-59
2022/06/24 07:15:35;;;;;;;8.90;1.70;;;;;;;33.43;22.61;100656.63;5090707;28;20031;-59
2022/06/24 07:18:02;;;;;;;3.67;1.63;;;;;;;33.37;22.62;100652.69;5093884;28;20032;-59
2022/06/24 07:20:29;;;;;;;7.10;1.90;;;;;;;33.28;22.26;100653.97;5092204;28;20081;-59
2022/06/24 07:22:56;;;;;;;14.30;2.30;;;;;;;33.19;22.90;100653.66;5089987;28;20028;-60
2022/06/24 07:25:23;;;;;;;9.10;2.10;;;;;;;33.00;22.97;100662.75;5092769;28;20537;-60
2022/06/24 07:27:50;;;;;;;9.55;2.10;;;;;;;32.88;23.20;100668.94;5093587;28;20039;-59
2022/06/24 07:30:16;;;;;;;5.00;1.75;;;;;;;32.83;23.82;100684.25;5094792;28;20020;-61
2022/06/24 07:32:47;;;;;;;4.95;1.45;;;;;;;32.73;23.67;100677.50;5089681;28;20048;-60
2022/06/24 07:35:13;;;;;;;8.57;2.13;;;;;;;32.59;23.67;100677.63;5091456;28;20119;-61
2022/06/24 07:37:40;;;;;;;7.57;1.65;;;;;;;32.62;23.11;100673.97;5092996;28;20036;-60
2022/06/24 07:40:08;;;;;;;13.20;1.92;;;;;;;32.62;22.89;100676.78;5094693;28;20024;-60
2022/06/24 07:42:35;;;;;;;6.05;1.55;;;;;;;32.71;23.13;100670.69;5090669;28;20040;-61
2022/06/24 07:45:03;;;;;;;6.50;1.80;;;;;;;32.80;22.90;100671.03;5091096;28;20051;-60
2022/06/24 07:47:30;;;;;;;7.70;1.67;;;;;;;32.73;22.45;100659.81;5090131;28;20038;-61
2022/06/24 07:49:56;;;;;;;5.93;1.80;;;;;;;32.74;22.38;100664.22;5091198;28;20487;-61
2022/06/24 07:52:23;;;;;;;4.63;1.58;;;;;;;32.72;22.91;100678.72;5093335;28;20509;-60
2022/06/24 07:56:56;;;;;;;4.15;1.60;;;;;;;32.70;23.11;100678.34;5089873;28;20192;-61
2022/06/24 07:57:36;;;;;;;3.17;1.30;;;;;;;32.74;22.82;100675.47;5082720;28;20037;-61
2022/06/24 08:00:03;;;;;;;3.42;1.15;;;;;;;32.63;22.55;100678.41;5095049;28;20032;-61
2022/06/24 08:02:38;;;;;;;4.85;1.50;;;;;;;32.72;22.55;100670.28;5091582;28;20043;-61
2022/06/24 08:05:05;;;;;;;8.50;1.65;;;;;;;32.65;22.63;100675.97;5091327;28;20025;-61
2022/06/24 08:07:32;;;;;;;4.45;1.85;;;;;;;32.60;22.82;100681.25;5089643;28;20027;-61
2022/06/24 08:09:58;;;;;;;7.80;1.52;;;;;;;32.47;23.12;100680.94;5092008;28;20036;-59
2022/06/24 08:12:25;;;;;;;5.82;1.50;;;;;;;32.40;23.04;100666.97;5096180;28;20031;-61
2022/06/24 08:14:52;;;;;;;6.15;1.58;;;;;;;32.38;23.38;100672.22;5093390;28;20051;-61
2022/06/24 08:17:19;;;;;;;6.07;1.65;;;;;;;32.37;23.27;100677.03;5089242;28;20013;-61
2022/06/24 08:19:46;;;;;;;9.38;1.60;;;;;;;32.41;23.51;100677.00;5094242;28;20042;-60
2022/06/24 08:22:12;;;;;;;3.88;1.48;;;;;;;32.36;23.91;100671.81;5094161;28;20024;-59
2022/06/24 08:24:40;;;;;;;4.63;1.60;;;;;;;32.25;23.64;100673.88;5090755;28;20036;-59
2022/06/24 08:27:07;;;;;;;5.97;1.30;;;;;;;32.37;23.88;100671.41;5090714;28;20454;-61
2022/06/24 08:29:34;;;;;;;7.28;1.13;;;;;;;32.42;23.40;100664.53;5090880;28;20097;-60
2022/06/24 08:32:01;;;;;;;5.22;1.35;;;;;;;32.44;23.58;100660.06;5094727;28;20626;-61
2022/06/24 08:34:27;;;;;;;3.80;1.20;;;;;;;32.41;23.36;100655.28;5093289;28;20043;-60
2022/06/24 08:36:54;;;;;;;4.65;1.48;;;;;;;32.46;23.39;100651.22;5091251;28;20036;-61
2022/06/24 08:39:20;;;;;;;5.35;1.50;;;;;;;32.55;22.93;100662.81;5091124;28;20032;-61
2022/06/24 08:41:51;;;;;;;7.68;1.70;;;;;;;32.53;22.79;100656.81;5091530;28;20393;-60
2022/06/24 08:44:18;;;;;;;3.83;1.30;;;;;;;32.53;22.92;100667.25;5091762;28;20493;-61
2022/06/24 08:46:44;;;;;;;5.80;1.45;;;;;;;32.55;22.91;100662.81;5092107;28;20020;-59
2022/06/24 08:49:11;;;;;;;8.15;1.70;;;;;;;32.61;22.80;100671.59;5090653;28;20172;-59
2022/06/24 08:51:40;;;;;;;5.65;1.60;;;;;;;32.46;23.41;100670.91;5092407;28;20180;-60
2022/06/24 08:54:09;;;;;;;3.63;1.20;;;;;;;32.47;22.75;100664.88;5091399;28;20190;-60
2022/06/24 08:56:35;;;;;;;5.50;1.48;;;;;;;32.44;23.03;100681.78;5083442;28;20030;-60
2022/06/24 08:59:02;;;;;;;4.07;1.52;;;;;;;32.53;22.92;100673.69;5090255;28;20177;-60
2022/06/24 09:01:29;;;;;;;6.47;1.73;;;;;;;32.57;22.81;100685.69;5090236;28;20027;-60
2022/06/24 09:03:56;;;;;;;6.70;1.40;;;;;;;32.46;23.02;100679.34;5092425;28;20028;-60
2022/06/24 09:06:22;;;;;;;4.68;1.40;;;;;;;32.56;22.69;100670.03;5089392;28;20020;-60
2022/06/24 09:08:53;;;;;;;7.65;1.50;;;;;;;32.55;22.72;100673.25;5092276;28;20016;-59
2022/06/24 09:11:20;;;;;;;3.25;1.00;;;;;;;32.59;22.68;100668.41;5089623;28;20126;-60
2022/06/24 09:14:00;;;;;;;4.93;1.23;;;;;;;32.59;22.74;100669.19;5089107;28;20462;-59
2022/06/24 09:16:26;;;;;;;3.95;1.30;;;;;;;32.67;22.29;100667.91;5089741;28;20035;-59
2022/06/24 09:19:00;;;;;;;3.85;1.35;;;;;;;32.61;22.38;100668.78;5090826;28;20530;-60
2022/06/24 09:21:29;;;;;;;3.33;1.40;;;;;;;32.60;22.55;100676.41;5090452;28;20024;-60
2022/06/24 09:24:01;;;;;;;7.10;1.50;;;;;;;32.57;22.44;100674.44;5094208;28;20424;-60
2022/06/24 09:26:38;;;;;;;3.58;1.40;;;;;;;32.52;22.98;100676.91;5089360;28;20084;-60
2022/06/24 09:29:14;;;;;;;3.03;1.30;;;;;;;32.49;22.79;100669.28;5088963;28;20115;-60
2022/06/24 09:31:41;;;;;;;4.35;1.40;;;;;;;32.50;23.03;100676.50;5088577;28;20126;-60
2022/06/24 09:34:14;;;;;;;3.85;1.20;;;;;;;32.59;23.01;100676.84;5092663;28;20105;-59
2022/06/24 09:36:44;;;;;;;4.13;1.40;;;;;;;32.41;22.79;100674.19;5088920;28;20028;-60
2022/06/24 09:39:15;;;;;;;6.43;1.80;;;;;;;32.32;22.91;100679.50;5088870;28;20070;-59
2022/06/24 09:41:49;;;;;;;4.05;1.38;;;;;;;32.40;23.45;100681.03;5091336;28;20028;-60
2022/06/24 09:44:17;;;;;;;4.53;1.35;;;;;;;32.28;23.69;100678.72;5086927;28;20024;-60
2022/06/24 09:46:44;;;;;;;2.78;1.38;;;;;;;32.22;23.11;100671.91;5093831;28;20105;-60
2022/06/24 09:49:17;;;;;;;4.95;1.63;;;;;;;32.12;23.94;100656.72;5091983;28;20039;-61
2022/06/24 09:51:45;;;;;;;3.40;2.25;;;;;;;32.08;23.74;100667.97;5090084;28;21424;-60
2022/06/24 09:54:15;;;;;;;4.63;1.67;;;;;;;32.09;23.68;100669.59;5089492;28;20027;-60
2022/06/24 09:56:44;;;;;;;3.20;1.50;;;;;;;32.33;22.70;100665.03;5081485;28;20043;-60
2022/06/24 10:02:00;;;;;;;3.40;1.58;;;;;;;32.23;22.61;100667.88;5089820;28;20036;-60
2022/06/24 10:04:28;;;;;;;4.82;1.40;;;;;;;32.16;23.13;100672.34;5093356;28;20035;-60
2022/06/24 10:06:57;;;;;;;3.08;1.20;;;;;;;31.99;22.78;100672.50;5093801;28;20474;-60
2022/06/24 10:09:28;;;;;;;14.15;1.58;;;;;;;31.92;23.68;100669.72;5095692;28;20382;-60
2022/06/24 10:11:57;;;;;;;12.90;1.80;;;;;;;31.81;23.55;100666.97;5095001;28;20042;-60
2022/06/24 10:14:29;;;;;;;4.32;1.30;;;;;;;31.62;23.33;100654.22;5092990;28;20035;-60
2022/06/24 10:16:58;;;;;;;4.38;1.38;;;;;;;31.72;23.79;100663.78;5094936;28;20032;-61
2022/06/24 10:19:26;;;;;;;3.20;1.40;;;;;;;31.66;23.71;100665.44;5093307;28;20047;-61
2022/06/24 10:21:52;;;;;;;9.20;1.45;;;;;;;31.66;23.84;100654.19;5093926;28;20489;-61
2022/06/24 10:24:19;;;;;;;3.67;1.20;;;;;;;31.66;23.81;100659.81;5093078;28;20052;-60
2022/06/24 10:26:48;;;;;;;6.43;1.48;;;;;;;31.57;23.83;100669.47;5093556;28;20162;-60
2022/06/24 10:29:14;;;;;;;4.95;1.42;;;;;;;31.42;25.02;100673.59;5094326;28;20064;-60
2022/06/24 10:31:48;;;;;;;2.20;1.23;;;;;;;31.24;25.21;100667.25;5095644;28;20036;-60
2022/06/24 10:34:28;;;;;;;6.93;1.55;;;;;;;31.02;25.63;100680.50;5094770;28;20497;-60
2022/06/24 10:37:24;;;;;;;5.22;1.40;;;;;;;30.72;26.61;100675.38;5092982;28;20481;-60
2022/06/24 10:39:56;;;;;;;6.22;1.58;;;;;;;30.51;26.63;100675.34;5092048;28;20028;-60
2022/06/24 10:42:24;;;;;;;4.88;1.30;;;;;;;30.37;26.76;100676.19;5091453;28;20035;-60
2022/06/24 10:45:03;;;;;;;7.13;1.58;;;;;;;30.32;26.67;100677.38;5092820;28;20381;-60
2022/06/24 10:47:43;;;;;;;5.20;1.35;;;;;;;30.23;26.77;100681.78;5093505;28;20024;-60
2022/06/24 10:50:16;;;;;;;4.90;1.77;;;;;;;30.15;27.07;100677.34;5092720;28;20036;-60
2022/06/24 10:52:48;;;;;;;7.47;1.60;;;;;;;29.98;27.18;100687.31;5091065;28;20024;-60
2022/06/24 10:55:17;;;;;;;2.97;1.42;;;;;;;29.86;26.99;100693.31;5091677;28;20111;-60
2022/06/24 10:57:49;;;;;;;9.43;1.75;;;;;;;29.83;27.40;100686.50;5086372;28;20024;-60
2022/06/24 11:00:21;;;;;;;5.70;1.60;;;;;;;29.74;27.26;100684.06;5092481;28;20032;-59
2022/06/24 11:02:53;;;;;;;5.13;1.30;;;;;;;29.76;26.76;100687.28;5090567;28;20370;-59
2022/06/24 11:05:23;;;;;;;4.25;1.60;;;;;;;29.75;27.07;100690.47;5093905;28;20140;-59
2022/06/24 11:07:51;;;;;;;2.80;1.30;;;;;;;29.66;27.53;100687.28;5094121;28;20027;-60
2022/06/24 11:10:23;;;;;;;2.38;1.30;;;;;;;29.73;26.92;100682.47;5092587;28;20020;-60
2022/06/24 11:12:58;;;;;;;5.13;1.55;;;;;;;29.76;27.17;100690.06;5092450;28;20124;-60
2022/06/24 11:15:34;;;;;;;;;;;;;;;29.74;27.07;100684.06;5091383;28;20035;-60
2022/06/24 11:18:11;;;;;;;4.53;1.33;;;;;;;29.69;27.19;100692.88;5094253;28;19923;-59
2022/06/24 11:20:41;;;;;;;4.60;1.40;;;;;;;29.58;27.71;100688.44;5092134;28;20032;-60
2022/06/24 11:23:10;;;;;;;4.95;1.70;;;;;;;29.40;27.69;100691.13;5095507;28;20040;-60
2022/06/24 11:25:40;;;;;;;7.85;1.60;;;;;;;29.45;27.50;100700.00;5095817;28;20031;-60
2022/06/24 11:28:34;;;;;;;8.48;1.90;;;;;;;29.58;27.55;100696.81;5095540;28;20032;-60
2022/06/24 11:31:22;;;;;;;7.60;1.50;;;;;;;29.56;27.96;100697.22;5094409;28;20421;-60
2022/06/24 11:34:07;;;;;;;5.35;1.80;;;;;;;29.35;27.96;100695.13;5095723;28;20036;-60
2022/06/24 11:36:36;;;;;;;6.63;1.60;;;;;;;29.16;28.25;100707.41;5095509;28;20080;-60
2022/06/24 11:39:05;;;;;;;5.38;1.70;;;;;;;29.10;28.66;100717.41;5095519;28;20062;-60
2022/06/24 11:41:37;;;;;;;5.57;1.58;;;;;;;29.03;28.67;100724.94;5095468;28;20493;-60